Time;durP1;ratioP1;P1;durP2;ratioP2;P2;SDS_P1;SDS_P2;PMS_P1;PMS_P2;Temp;Humidity;BMP_temperature;BMP_pressure;BME280_temperature;BME280_humidity;BME280_pressure;Samples;Min_cycle;Max_cycle;Signal;HPM_P1;HPM_P2
2023/03/05 00:02:06;;;;;;;10.48;1.50;;;;;;;1.25;100.00;102446.44;5030947;28;20133;-75
2023/03/05 00:04:32;;;;;;;7.38;1.50;;;;;;;1.31;100.00;102443.63;5049174;28;20048;-75
2023/03/05 00:06:57;;;;;;;13.40;2.83;;;;;;;1.34;100.00;102446.19;5049658;28;20101;-76
2023/03/05 00:09:23;;;;;;;7.70;1.52;;;;;;;1.32;100.00;102440.13;5049247;28;20120;-76
2023/03/05 00:11:49;;;;;;;10.73;1.98;;;;;;;1.29;100.00;102429.72;5047668;28;20024;-75
2023/03/05 00:14:14;;;;;;;7.22;1.35;;;;;;;1.22;100.00;102429.00;5049574;28;20071;-76
2023/03/05 00:16:40;;;;;;;11.13;2.05;;;;;;;1.15;100.00;102423.06;5049577;28;20353;-76
2023/03/05 00:19:05;;;;;;;7.55;1.83;;;;;;;1.10;100.00;102422.31;5049271;28;20041;-76
2023/03/05 00:21:34;;;;;;;9.80;2.08;;;;;;;1.05;100.00;102425.06;5049478;28;20080;-76
2023/03/05 00:24:01;;;;;;;7.03;1.92;;;;;;;1.01;100.00;102417.31;5049296;28;20029;-76
2023/03/05 00:26:28;;;;;;;6.45;1.80;;;;;;;0.97;100.00;102421.78;5049049;28;20037;-77
2023/03/05 00:28:55;;;;;;;4.90;1.73;;;;;;;0.98;100.00;102418.22;5049404;28;20164;-76
2023/03/05 00:31:25;;;;;;;8.30;1.80;;;;;;;1.01;100.00;102430.41;5049291;28;20037;-75
2023/03/05 00:33:56;;;;;;;8.05;1.63;;;;;;;1.03;100.00;102421.63;5049310;28;20021;-76
2023/03/05 00:36:23;;;;;;;;;;;;;;;1.05;100.00;102417.19;5049823;28;20112;-76
2023/03/05 00:38:48;;;;;;;7.45;1.50;;;;;;;1.12;100.00;102417.03;5048866;28;20333;-76
2023/03/05 00:41:14;;;;;;;5.32;1.30;;;;;;;1.14;100.00;102413.47;5049041;28;20027;-76
2023/03/05 00:43:39;;;;;;;6.82;1.42;;;;;;;1.15;100.00;102409.06;5048866;28;20025;-76
2023/03/05 00:46:05;;;;;;;6.90;1.38;;;;;;;1.19;100.00;102402.88;5047157;28;20029;-75
2023/03/05 00:48:30;;;;;;;8.75;2.10;;;;;;;1.20;100.00;102405.44;5050269;28;20025;-75
2023/03/05 00:50:56;;;;;;;4.53;1.92;;;;;;;1.21;100.00;102401.94;5053586;28;20340;-76
2023/03/05 00:53:21;;;;;;;10.10;1.70;;;;;;;1.25;100.00;102400.06;5053451;28;20055;-75
2023/03/05 00:55:47;;;;;;;5.50;1.52;;;;;;;1.30;100.00;102402.56;5053568;28;20117;-75
2023/03/05 00:58:13;;;;;;;4.03;1.92;;;;;;;1.34;100.00;102393.72;5053813;28;20410;-77
2023/03/05 01:00:38;;;;;;;5.53;1.60;;;;;;;1.39;100.00;102389.25;5051596;28;20089;-76
2023/03/05 01:03:04;;;;;;;5.93;1.20;;;;;;;1.45;100.00;102391.69;5066106;28;20055;-75
2023/03/05 01:05:30;;;;;;;4.55;1.10;;;;;;;1.46;100.00;102385.50;5072878;28;20385;-75
2023/03/05 01:07:56;;;;;;;9.05;1.85;;;;;;;1.49;100.00;102388.06;5073142;28;20036;-75
2023/03/05 01:10:25;;;;;;;7.18;1.17;;;;;;;1.52;100.00;102384.50;5073397;28;20155;-74
2023/03/05 01:12:51;;;;;;;4.95;1.20;;;;;;;1.52;100.00;102377.50;5073618;28;20044;-76
2023/03/05 01:15:16;;;;;;;5.22;1.38;;;;;;;1.53;100.00;102378.34;5073327;28;20142;-76
2023/03/05 01:17:42;;;;;;;5.97;1.42;;;;;;;1.52;100.00;102374.88;5073366;28;20055;-78
2023/03/05 01:20:11;;;;;;;7.03;1.55;;;;;;;1.53;100.00;102368.72;5072793;28;20460;-75
2023/03/05 01:22:36;;;;;;;4.88;1.10;;;;;;;1.57;100.00;102370.34;5072761;28;20032;-76
2023/03/05 01:25:02;;;;;;;11.95;2.22;;;;;;;1.57;100.00;102359.00;5072450;28;20036;-76
2023/03/05 01:27:27;;;;;;;8.55;1.90;;;;;;;1.58;100.00;102366.81;5072568;28;20040;-76
2023/03/05 01:29:53;;;;;;;9.45;1.73;;;;;;;1.63;100.00;102366.69;5054381;28;20051;-76
2023/03/05 01:32:18;;;;;;;4.15;1.17;;;;;;;1.68;100.00;102363.94;5054724;28;20086;-77
2023/03/05 01:34:44;;;;;;;5.93;2.08;;;;;;;1.74;100.00;102361.13;5073476;28;20453;-75
2023/03/05 01:37:09;;;;;;;7.43;1.20;;;;;;;1.79;100.00;102353.97;5073108;28;20024;-76
2023/03/05 01:39:35;;;;;;;6.13;1.20;;;;;;;1.82;100.00;102353.91;5072933;28;20082;-76
2023/03/05 01:42:01;;;;;;;8.18;1.60;;;;;;;1.84;100.00;102340.75;5073282;28;20047;-76
2023/03/05 01:44:28;;;;;;;11.32;1.50;;;;;;;1.91;100.00;102345.75;5074415;28;20029;-75
2023/03/05 01:46:54;;;;;;;8.73;1.50;;;;;;;1.92;100.00;102338.72;5074220;28;20119;-75
2023/03/05 01:49:24;;;;;;;3.88;0.90;;;;;;;1.89;100.00;102338.81;5072582;28;20158;-76
2023/03/05 01:51:52;;;;;;;8.35;1.38;;;;;;;1.84;100.00;102336.34;5072586;28;20043;-76
2023/03/05 01:54:20;;;;;;;6.25;1.42;;;;;;;1.83;100.00;102331.13;5072279;28;20024;-76
2023/03/05 01:56:48;;;;;;;8.40;1.50;;;;;;;1.79;100.00;102322.47;5072335;28;20032;-76
2023/03/05 01:59:15;;;;;;;5.80;1.40;;;;;;;1.74;100.00;102317.38;5071777;28;20036;-76
2023/03/05 02:01:45;;;;;;;8.05;1.20;;;;;;;1.66;100.00;102314.13;5070607;28;20418;-76
2023/03/05 02:04:14;;;;;;;8.63;1.30;;;;;;;1.55;100.00;102308.31;5071577;28;20453;-75
2023/03/05 02:06:41;;;;;;;11.35;1.58;;;;;;;1.46;100.00;102300.72;5071491;28;20017;-76
2023/03/05 02:09:07;;;;;;;6.22;1.10;;;;;;;1.43;100.00;102295.56;5072050;28;20036;-75
2023/03/05 02:11:34;;;;;;;9.25;1.40;;;;;;;1.40;100.00;102292.13;5070995;28;20040;-75
2023/03/05 02:14:00;;;;;;;6.13;1.15;;;;;;;1.41;100.00;102285.97;5053106;28;20032;-75
2023/03/05 02:16:34;;;;;;;8.93;1.35;;;;;;;1.41;100.00;102288.59;5053355;28;20042;-76
2023/03/05 02:19:00;;;;;;;5.95;0.98;;;;;;;1.39;100.00;102289.56;5072089;28;20031;-74
2023/03/05 02:21:34;;;;;;;8.32;1.60;;;;;;;1.33;100.00;102280.09;5053630;28;20210;-76
2023/03/05 02:24:00;;;;;;;5.63;1.02;;;;;;;1.24;100.00;102272.50;5071898;28;20080;-75
2023/03/05 02:26:25;;;;;;;11.02;1.30;;;;;;;1.16;100.00;102274.47;5071913;28;20464;-74
2023/03/05 02:28:59;;;;;;;8.00;1.50;;;;;;;1.03;100.00;102269.56;5071772;28;20044;-76
2023/03/05 02:31:25;;;;;;;3.60;0.98;;;;;;;0.92;100.00;102261.13;5053956;28;20032;-76
2023/03/05 02:33:52;;;;;;;5.38;1.77;;;;;;;0.81;100.00;102260.59;5071799;28;20453;-75
2023/03/05 02:36:19;;;;;;;4.22;1.00;;;;;;;0.68;100.00;102258.25;5071705;28;20031;-75
2023/03/05 02:38:45;;;;;;;3.95;1.30;;;;;;;0.54;100.00;102252.56;5071463;28;20402;-75
2023/03/05 02:41:12;;;;;;;7.40;1.10;;;;;;;0.47;100.00;102251.81;5072138;28;20452;-74
2023/03/05 02:43:37;;;;;;;3.75;0.90;;;;;;;0.46;100.00;102254.50;5071700;28;20043;-76
2023/03/05 02:46:03;;;;;;;4.20;1.23;;;;;;;0.48;100.00;102242.22;5071055;28;20024;-75
2023/03/05 02:48:29;;;;;;;2.95;0.90;;;;;;;0.57;100.00;102244.59;5071182;28;20032;-76
2023/03/05 02:50:55;;;;;;;7.35;1.08;;;;;;;0.64;100.00;102238.31;5071521;28;20176;-74
2023/03/05 02:53:22;;;;;;;7.63;1.40;;;;;;;0.71;100.00;102233.75;5053313;28;20033;-75
2023/03/05 02:55:49;;;;;;;9.00;1.38;;;;;;;0.78;100.00;102235.31;5053278;28;20174;-74
2023/03/05 02:58:15;;;;;;;6.97;1.67;;;;;;;0.83;100.00;102230.78;5071576;28;20119;-74
2023/03/05 03:00:40;;;;;;;6.45;1.33;;;;;;;0.91;100.00;102230.59;5071137;28;20076;-75
2023/03/05 03:03:06;;;;;;;5.28;1.10;;;;;;;0.97;100.00;102225.19;5052607;28;20143;-75
2023/03/05 03:05:31;;;;;;;7.68;1.20;;;;;;;1.04;100.00;102225.84;5071076;28;20045;-75
2023/03/05 03:07:56;;;;;;;4.80;1.02;;;;;;;1.12;100.00;102220.38;5052817;28;20386;-75
2023/03/05 03:10:22;;;;;;;3.80;1.25;;;;;;;1.16;100.00;102215.00;5071311;28;20046;-76
2023/03/05 03:12:47;;;;;;;9.85;1.40;;;;;;;1.25;100.00;102227.00;5070794;28;20025;-77
2023/03/05 03:15:15;;;;;;;8.68;1.15;;;;;;;1.31;100.00;102218.94;5070505;28;20043;-76
2023/03/05 03:17:42;;;;;;;6.55;1.38;;;;;;;1.36;100.00;102217.06;5052491;28;20040;-75
2023/03/05 03:20:12;;;;;;;10.85;1.55;;;;;;;1.43;100.00;102212.47;5070367;28;20123;-76
2023/03/05 03:22:38;;;;;;;12.45;0.95;;;;;;;1.51;100.00;102217.53;5070607;28;20035;-76
2023/03/05 03:25:04;;;;;;;5.78;1.00;;;;;;;1.57;100.00;102209.47;5052164;28;20024;-76
2023/03/05 03:27:30;;;;;;;2.67;0.80;;;;;;;1.63;100.00;102204.00;5070296;28;20479;-76
2023/03/05 03:29:55;;;;;;;4.25;1.05;;;;;;;1.68;100.00;102196.84;5070318;28;20029;-75
2023/03/05 03:32:20;;;;;;;6.55;0.93;;;;;;;1.71;100.00;102194.13;5069967;28;20052;-76
2023/03/05 03:34:47;;;;;;;7.35;0.60;;;;;;;1.74;100.00;102193.16;5070220;28;20166;-75
2023/03/05 03:37:13;;;;;;;2.55;0.90;;;;;;;1.72;100.00;102190.59;5070022;28;20036;-75
2023/03/05 03:39:39;;;;;;;2.88;1.02;;;;;;;1.71;100.00;102191.50;5069992;28;20027;-75
2023/03/05 03:42:04;;;;;;;3.70;0.60;;;;;;;1.67;100.00;102192.53;5070119;28;20107;-75
2023/03/05 03:44:30;;;;;;;2.53;0.82;;;;;;;1.71;100.00;102190.66;5052008;28;20029;-80
2023/03/05 03:46:55;;;;;;;4.22;0.77;;;;;;;1.73;100.00;102178.31;5051999;28;20028;-75
2023/03/05 03:49:23;;;;;;;2.63;0.75;;;;;;;1.75;100.00;102185.25;5069966;28;20036;-75
2023/03/05 03:51:50;;;;;;;4.20;0.60;;;;;;;1.79;100.00;102180.75;5051925;28;20084;-75
2023/03/05 03:54:17;;;;;;;4.22;0.60;;;;;;;1.81;100.00;102175.44;5069641;28;20032;-75
2023/03/05 03:56:42;;;;;;;6.85;1.40;;;;;;;1.83;100.00;102178.91;5069971;28;20115;-76
2023/03/05 03:59:08;;;;;;;3.20;0.93;;;;;;;1.78;100.00;102173.81;5051771;28;20534;-76
2023/03/05 04:01:34;;;;;;;6.65;1.63;;;;;;;1.72;100.00;102174.84;5069585;28;20123;-75
2023/03/05 04:03:59;;;;;;;4.15;0.73;;;;;;;1.67;100.00;102171.53;5051468;28;20036;-76
2023/03/05 04:06:25;;;;;;;6.90;1.95;;;;;;;1.65;100.00;102167.22;5069875;28;20071;-76
2023/03/05 04:08:50;;;;;;;8.57;0.98;;;;;;;1.61;100.00;102162.97;5069995;28;20090;-77
2023/03/05 04:11:18;;;;;;;2.22;1.05;;;;;;;1.55;100.00;102156.16;5069995;28;20033;-77
2023/03/05 04:13:46;;;;;;;5.30;0.70;;;;;;;1.51;100.00;102154.56;5069336;28;20055;-76
2023/03/05 04:16:12;;;;;;;5.95;0.95;;;;;;;1.48;100.00;102149.38;5051108;28;20344;-77
2023/03/05 04:18:38;;;;;;;5.32;1.10;;;;;;;1.48;100.00;102149.38;5070071;28;20163;-76
2023/03/05 04:21:04;;;;;;;9.38;0.65;;;;;;;1.46;100.00;102148.59;5069245;28;20160;-75
2023/03/05 04:23:30;;;;;;;4.55;0.77;;;;;;;1.40;100.00;102149.63;5069362;28;20020;-75
2023/03/05 04:25:55;;;;;;;2.97;0.55;;;;;;;1.31;100.00;102142.91;5069537;28;20109;-77
2023/03/05 04:28:20;;;;;;;3.92;0.70;;;;;;;1.22;100.00;102144.06;5069599;28;20031;-78
2023/03/05 04:30:46;;;;;;;2.67;0.98;;;;;;;1.17;100.00;102138.09;5069887;28;20078;-76
2023/03/05 04:33:11;;;;;;;1.10;0.60;;;;;;;1.16;100.00;102125.88;5069508;28;20108;-76
2023/03/05 04:35:37;;;;;;;2.15;0.70;;;;;;;1.16;100.00;102122.41;5069679;28;20383;-82
2023/03/05 04:38:02;;;;;;;10.52;1.15;;;;;;;1.13;100.00;102125.97;5069568;28;20332;-75
2023/03/05 04:40:28;;;;;;;5.00;0.80;;;;;;;1.08;100.00;102129.66;5069350;28;20498;-77
2023/03/05 04:42:53;;;;;;;2.30;1.00;;;;;;;1.05;100.00;102126.19;5070037;28;20029;-76
2023/03/05 04:45:18;;;;;;;8.93;1.10;;;;;;;1.07;100.00;102135.78;5069620;28;20025;-76
2023/03/05 04:47:44;;;;;;;7.45;1.10;;;;;;;1.09;100.00;102136.59;5069013;28;20169;-76
2023/03/05 04:50:11;;;;;;;8.02;1.10;;;;;;;1.15;100.00;102123.28;5069454;28;20029;-76
2023/03/05 04:52:41;;;;;;;1.83;1.25;;;;;;;1.18;100.00;102115.34;5069182;28;20061;-75
2023/03/05 04:55:07;;;;;;;5.03;1.00;;;;;;;1.17;100.00;102118.88;5069323;28;20037;-76
2023/03/05 04:57:34;;;;;;;6.30;0.90;;;;;;;1.13;100.00;102112.84;5069084;28;20459;-77
2023/03/05 04:59:59;;;;;;;4.97;0.95;;;;;;;1.07;100.00;102113.03;5069372;28;20079;-75
2023/03/05 05:02:25;;;;;;;3.80;0.65;;;;;;;0.99;100.00;102115.91;5068964;28;20045;-75
2023/03/05 05:04:53;;;;;;;2.95;0.73;;;;;;;0.90;100.00;102108.31;5050661;28;20024;-76
2023/03/05 05:07:19;;;;;;;4.60;0.80;;;;;;;0.84;100.00;102098.88;5069224;28;20039;-76
2023/03/05 05:09:44;;;;;;;1.23;0.70;;;;;;;0.79;100.00;102098.16;5069475;28;20033;-76
2023/03/05 05:12:10;;;;;;;7.10;1.08;;;;;;;0.73;100.00;102098.31;5069473;28;20029;-75
2023/03/05 05:14:35;;;;;;;11.00;1.15;;;;;;;0.70;100.00;102096.66;5050653;28;20036;-76
2023/03/05 05:17:03;;;;;;;6.40;0.90;;;;;;;0.71;100.00;102094.91;5068956;28;20072;-75
2023/03/05 05:19:30;;;;;;;6.95;1.20;;;;;;;0.76;100.00;102092.13;5069180;28;20025;-76
2023/03/05 05:21:55;;;;;;;6.97;1.55;;;;;;;0.79;100.00;102092.91;5069491;28;20131;-76
2023/03/05 05:24:21;;;;;;;5.45;0.82;;;;;;;0.83;100.00;102086.66;5068979;28;20044;-76
2023/03/05 05:26:46;;;;;;;3.80;1.00;;;;;;;0.91;100.00;102086.47;5033691;28;20055;-77
2023/03/05 05:29:11;;;;;;;2.80;0.90;;;;;;;1.00;100.00;102077.44;5050641;28;20043;-76
2023/03/05 05:31:37;;;;;;;6.68;0.85;;;;;;;1.13;100.00;102083.16;5068724;28;20017;-78
2023/03/05 05:34:03;;;;;;;3.05;1.13;;;;;;;1.19;100.00;102073.34;5068600;28;20049;-75
2023/03/05 05:36:28;;;;;;;3.22;0.98;;;;;;;1.30;100.00;102073.00;5071277;28;20040;-76
2023/03/05 05:38:54;;;;;;;12.45;1.30;;;;;;;1.38;100.00;102078.00;5072284;28;20021;-77
2023/03/05 05:41:19;;;;;;;3.92;0.82;;;;;;;1.44;100.00;102074.34;5054328;28;20081;-76
2023/03/05 05:43:45;;;;;;;7.78;1.40;;;;;;;1.46;100.00;102073.34;5072784;28;20035;-75
2023/03/05 05:46:13;;;;;;;3.10;0.82;;;;;;;1.48;100.00;102071.56;5072309;28;20149;-75
2023/03/05 05:48:39;;;;;;;7.07;1.30;;;;;;;1.56;100.00;102066.91;5072455;28;20031;-75
2023/03/05 05:51:06;;;;;;;12.68;1.10;;;;;;;1.66;100.00;102066.63;5054411;28;20028;-76
2023/03/05 05:53:31;;;;;;;6.22;1.13;;;;;;;1.75;100.00;102061.06;5054937;28;20051;-75
2023/03/05 05:55:57;;;;;;;5.80;1.15;;;;;;;1.79;100.00;102057.41;5072579;28;20024;-75
2023/03/05 05:58:22;;;;;;;6.65;0.60;;;;;;;1.77;100.00;102065.31;5037474;28;20032;-77
2023/03/05 06:00:48;;;;;;;5.07;1.08;;;;;;;1.78;100.00;102066.19;5054073;28;20039;-81
2023/03/05 06:03:13;;;;;;;4.78;1.17;;;;;;;1.82;100.00;102073.06;5072477;28;20044;-75
2023/03/05 06:05:40;;;;;;;3.78;0.90;;;;;;;1.86;100.00;102074.66;5054259;28;20036;-76
2023/03/05 06:08:06;;;;;;;2.95;0.68;;;;;;;1.86;100.00;102077.28;5071758;28;20373;-75
2023/03/05 06:10:31;;;;;;;3.65;1.00;;;;;;;1.80;100.00;102076.66;5053363;28;20115;-75
2023/03/05 06:12:57;;;;;;;4.00;0.85;;;;;;;1.74;100.00;102069.84;5071770;28;20024;-76
2023/03/05 06:15:22;;;;;;;4.15;0.82;;;;;;;1.62;100.00;102063.22;5053475;28;20394;-76
2023/03/05 06:17:47;;;;;;;5.15;0.82;;;;;;;1.52;100.00;102060.06;5071347;28;20032;-76
2023/03/05 06:20:13;;;;;;;2.83;0.50;;;;;;;1.47;100.00;102066.38;5071354;28;20417;-75
2023/03/05 06:22:39;;;;;;;3.30;1.00;;;;;;;1.41;100.00;102064.78;5053187;28;20020;-74
2023/03/05 06:25:06;;;;;;;2.88;0.90;;;;;;;1.34;100.00;102061.50;5053557;28;20058;-74
2023/03/05 06:27:32;;;;;;;1.95;0.85;;;;;;;1.30;100.00;102066.88;5071348;28;20108;-74
2023/03/05 06:29:58;;;;;;;6.78;0.85;;;;;;;1.26;100.00;102060.06;5071613;28;20055;-74
2023/03/05 06:32:23;;;;;;;3.83;0.70;;;;;;;1.25;100.00;102066.19;5053055;28;20433;-76
2023/03/05 06:34:49;;;;;;;9.25;0.90;;;;;;;1.26;100.00;102060.06;5071078;28;20317;-75
2023/03/05 06:37:15;;;;;;;5.28;0.82;;;;;;;1.28;100.00;102061.69;5071325;28;20410;-75
2023/03/05 06:39:40;;;;;;;1.33;0.77;;;;;;;1.34;100.00;102061.50;5071212;28;20024;-75
2023/03/05 06:42:06;;;;;;;7.22;1.50;;;;;;;1.38;100.00;102062.28;5071652;28;20389;-78
2023/03/05 06:44:31;;;;;;;2.60;0.50;;;;;;;1.44;100.00;102059.44;5071571;28;20367;-76
2023/03/05 06:46:57;;;;;;;4.40;0.90;;;;;;;1.50;100.00;102056.63;5070662;28;20039;-75
2023/03/05 06:49:22;;;;;;;2.22;0.90;;;;;;;1.56;100.00;102052.94;5071512;28;20040;-74
2023/03/05 06:51:47;;;;;;;2.28;0.50;;;;;;;1.56;100.00;102053.78;5052947;28;20035;-75
2023/03/05 06:54:15;;;;;;;1.67;0.60;;;;;;;1.58;100.00;102057.22;5052986;28;20151;-75
2023/03/05 06:56:43;;;;;;;3.38;0.63;;;;;;;1.61;100.00;102051.00;5070934;28;20107;-76
2023/03/05 06:59:11;;;;;;;1.55;0.70;;;;;;;1.63;100.00;102049.22;5070717;28;20077;-76
2023/03/05 07:01:37;;;;;;;3.13;0.60;;;;;;;1.66;100.00;102048.25;5070405;28;20494;-75
2023/03/05 07:04:03;;;;;;;3.38;0.90;;;;;;;1.69;100.00;102050.78;5049123;28;20139;-75
2023/03/05 07:06:32;;;;;;;2.22;0.80;;;;;;;1.74;100.00;102040.97;5050806;28;20127;-75
2023/03/05 07:09:00;;;;;;;7.13;1.70;;;;;;;1.77;100.00;102039.06;5051010;28;20040;-76
2023/03/05 07:11:26;;;;;;;6.68;1.00;;;;;;;1.87;100.00;102049.28;5050893;28;20465;-75
2023/03/05 07:13:51;;;;;;;10.77;3.10;;;;;;;1.95;100.00;102052.47;5050576;28;20099;-76
2023/03/05 07:16:20;;;;;;;2.08;1.30;;;;;;;1.99;100.00;102055.88;5049424;28;20381;-75
2023/03/05 07:18:46;;;;;;;2.95;0.90;;;;;;;1.97;100.00;102055.06;5050377;28;20096;-76
2023/03/05 07:21:16;;;;;;;8.35;1.85;;;;;;;1.90;100.00;102055.28;5050774;28;20482;-75
2023/03/05 07:23:41;;;;;;;1.60;0.50;;;;;;;1.81;100.00;102050.34;5050624;28;20090;-75
2023/03/05 07:26:07;;;;;;;1.95;0.50;;;;;;;1.75;100.00;102043.53;5050455;28;20433;-76
2023/03/05 07:28:33;;;;;;;1.92;0.55;;;;;;;1.74;100.00;102043.59;5049453;28;20108;-75
2023/03/05 07:31:05;;;;;;;2.40;0.43;;;;;;;1.74;100.00;102041.81;5050559;28;20502;-80
2023/03/05 07:33:31;;;;;;;;;;;;;;;1.79;100.00;102041.66;5050345;28;20100;-74
2023/03/05 07:35:56;;;;;;;4.13;0.63;;;;;;;1.86;100.00;102042.31;5050417;28;19912;-74
2023/03/05 07:38:22;;;;;;;1.60;0.57;;;;;;;1.93;100.00;102047.28;5050239;28;20017;-74
2023/03/05 07:40:47;;;;;;;3.08;0.73;;;;;;;2.00;100.00;102044.44;5050133;28;20101;-75
2023/03/05 07:43:12;;;;;;;2.33;0.95;;;;;;;2.07;100.00;102041.53;5048564;28;20036;-75
2023/03/05 07:45:40;;;;;;;5.28;1.30;;;;;;;2.19;100.00;102040.25;5050061;28;20190;-75
2023/03/05 07:48:06;;;;;;;4.45;1.38;;;;;;;2.33;100.00;102046.75;5049966;28;20079;-76
2023/03/05 07:50:32;;;;;;;6.68;2.00;;;;;;;2.49;100.00;102040.03;5031827;28;20028;-75
2023/03/05 07:52:58;;;;;;;3.92;1.48;;;;;;;2.72;100.00;102038.31;5048601;28;20375;-76
2023/03/05 07:55:23;;;;;;;4.63;1.30;;;;;;;2.85;100.00;102038.69;5048768;28;20106;-74
2023/03/05 07:57:49;;;;;;;3.03;0.95;;;;;;;3.00;100.00;102032.81;5049733;28;20028;-74
2023/03/05 08:00:14;;;;;;;3.92;0.70;;;;;;;3.15;100.00;102031.34;5050148;28;20392;-75
2023/03/05 08:02:40;;;;;;;2.28;0.57;;;;;;;3.27;100.00;102030.88;5048222;28;20044;-75
2023/03/05 08:05:06;;;;;;;3.63;0.47;;;;;;;3.32;100.00;102028.91;5049897;28;20523;-76
2023/03/05 08:07:31;;;;;;;4.75;1.02;;;;;;;3.44;100.00;102024.06;5050440;28;20025;-75
2023/03/05 08:09:56;;;;;;;3.72;0.82;;;;;;;3.50;100.00;102021.16;5048421;28;20029;-75
2023/03/05 08:12:22;;;;;;;4.47;1.00;;;;;;;3.58;100.00;102026.09;5048363;28;20386;-75
2023/03/05 08:14:47;;;;;;;5.40;1.30;;;;;;;3.67;100.00;102018.69;5049986;28;20031;-75
2023/03/05 08:17:13;;;;;;;4.47;1.20;;;;;;;3.74;100.00;102019.25;5049840;28;20025;-74
2023/03/05 08:19:38;;;;;;;4.05;1.25;;;;;;;3.81;100.00;102017.25;5049870;28;20024;-74
2023/03/05 08:22:03;;;;;;;9.60;1.17;;;;;;;3.86;100.00;102018.72;5049796;28;20410;-75
2023/03/05 08:24:29;;;;;;;1.92;0.70;;;;;;;3.89;100.00;102023.00;5049369;28;20353;-75
2023/03/05 08:26:56;;;;;;;4.47;0.70;;;;;;;3.97;100.00;102012.13;5049620;28;20379;-76
2023/03/05 08:29:21;;;;;;;5.07;0.80;;;;;;;3.96;100.00;102002.56;5031407;28;20052;-76
2023/03/05 08:31:47;;;;;;;2.42;0.47;;;;;;;4.00;100.00;102002.34;5049187;28;20414;-76
2023/03/05 08:34:13;;;;;;;3.13;0.65;;;;;;;4.09;100.00;101997.56;5049445;28;20394;-74
2023/03/05 08:36:38;;;;;;;1.70;0.90;;;;;;;4.11;100.00;101998.38;5049058;28;20410;-77
2023/03/05 08:39:05;;;;;;;0.93;0.43;;;;;;;4.09;100.00;102001.09;5049622;28;20095;-81
2023/03/05 08:41:31;;;;;;;1.60;0.50;;;;;;;4.03;100.00;101999.56;5049424;28;20052;-76
2023/03/05 08:43:57;;;;;;;1.75;0.20;;;;;;;3.92;100.00;101993.91;5047674;28;20426;-75
2023/03/05 08:46:23;;;;;;;4.40;0.95;;;;;;;3.83;100.00;102000.44;5047977;28;20029;-77
2023/03/05 08:48:49;;;;;;;3.78;0.57;;;;;;;3.67;100.00;102012.56;5049416;28;20028;-77
2023/03/05 08:51:24;;;;;;;2.63;0.93;;;;;;;3.44;100.00;102003.00;5048887;28;20104;-76
2023/03/05 08:53:51;;;;;;;6.03;1.00;;;;;;;3.18;100.00;102002.31;5049506;28;20025;-75
2023/03/05 08:56:17;;;;;;;3.63;1.00;;;;;;;2.99;100.00;101995.16;5047322;28;20040;-74
2023/03/05 08:58:43;;;;;;;2.33;0.80;;;;;;;2.75;100.00;101998.78;5049141;28;20040;-74
2023/03/05 09:01:09;;;;;;;2.92;0.60;;;;;;;2.50;100.00;102007.59;5047453;28;20077;-73
2023/03/05 09:03:34;;;;;;;3.78;0.93;;;;;;;2.33;100.00;102005.63;5064105;28;20401;-74
2023/03/05 09:06:02;;;;;;;4.20;0.80;;;;;;;2.18;100.00;101998.28;5068936;28;20036;-73
2023/03/05 09:08:28;;;;;;;1.92;0.55;;;;;;;2.07;100.00;101994.28;5068472;28;20033;-76
2023/03/05 09:10:54;;;;;;;3.55;0.80;;;;;;;2.06;100.00;101994.34;5072370;28;20489;-74
2023/03/05 09:13:19;;;;;;;5.05;1.17;;;;;;;2.11;100.00;101998.50;5072415;28;20124;-76
2023/03/05 09:15:45;;;;;;;4.07;0.63;;;;;;;2.21;100.00;101993.78;5072803;28;20154;-75
2023/03/05 09:18:10;;;;;;;2.58;0.68;;;;;;;2.32;100.00;101987.28;5054495;28;20020;-77
2023/03/05 09:20:37;;;;;;;4.68;0.70;;;;;;;2.42;100.00;101989.50;5054335;28;20056;-77
2023/03/05 09:23:02;;;;;;;1.83;0.80;;;;;;;2.62;100.00;101985.25;5054048;28;20085;-76
2023/03/05 09:25:28;;;;;;;2.50;0.68;;;;;;;2.73;100.00;101984.81;5054013;28;20028;-74
2023/03/05 09:27:53;;;;;;;3.35;0.60;;;;;;;2.86;100.00;101988.69;5072199;28;20047;-74
2023/03/05 09:30:19;;;;;;;4.43;0.80;;;;;;;2.99;100.00;101983.81;5072024;28;20106;-75
2023/03/05 09:32:45;;;;;;;3.72;0.73;;;;;;;3.20;100.00;101981.22;5053758;28;20487;-77
2023/03/05 09:35:11;;;;;;;4.80;1.08;;;;;;;3.42;100.00;101979.41;5071955;28;20128;-75
2023/03/05 09:37:36;;;;;;;6.50;0.43;;;;;;;3.59;100.00;101975.19;5071927;28;20432;-74
2023/03/05 09:40:02;;;;;;;3.75;0.63;;;;;;;3.67;100.00;101973.06;5053775;28;20462;-75
2023/03/05 09:42:52;;;;;;;2.40;0.75;;;;;;;3.80;100.00;101968.97;5053495;28;20433;-76
2023/03/05 09:45:35;;;;;;;6.38;1.10;;;;;;;3.98;100.00;101974.34;5071609;28;20066;-76
2023/03/05 09:48:23;;;;;;;3.22;0.68;;;;;;;4.18;100.00;101973.44;5072048;28;20062;-75
2023/03/05 09:51:00;;;;;;;2.92;0.60;;;;;;;4.29;100.00;101975.63;5072644;28;20107;-76
2023/03/05 09:53:51;;;;;;;2.15;0.70;;;;;;;4.50;100.00;101968.50;5053823;28;20386;-76
2023/03/05 09:56:28;;;;;;;4.50;0.70;;;;;;;4.54;100.00;101967.44;5071669;28;20114;-75
2023/03/05 09:58:58;;;;;;;4.68;1.13;;;;;;;4.63;100.00;101960.84;5053645;28;20294;-75
2023/03/05 10:01:38;;;;;;;3.80;0.85;;;;;;;4.80;100.00;101963.53;5071738;28;20137;-76
2023/03/05 10:04:12;;;;;;;3.85;0.93;;;;;;;4.91;100.00;101960.34;5071897;28;20132;-77
2023/03/05 10:07:08;;;;;;;2.80;0.90;;;;;;;4.96;100.00;101958.38;5070770;28;20136;-76
2023/03/05 10:09:49;;;;;;;2.88;0.50;;;;;;;5.08;100.00;101955.13;5071091;28;20054;-76
2023/03/05 10:12:26;;;;;;;2.60;0.40;;;;;;;5.28;100.00;101958.53;5071342;28;20021;-75
2023/03/05 10:14:53;;;;;;;2.58;0.82;;;;;;;5.49;100.00;101953.94;5053608;28;20435;-74
2023/03/05 10:17:21;;;;;;;1.73;0.28;;;;;;;5.72;100.00;101954.53;5071508;28;20116;-74
2023/03/05 10:20:24;;;;;;;3.10;0.52;;;;;;;6.12;100.00;101949.81;5071813;28;20102;-73
2023/03/05 10:23:07;;;;;;;1.88;0.73;;;;;;;6.24;100.00;101943.00;5052959;28;20040;-73
2023/03/05 10:25:53;;;;;;;3.55;0.60;;;;;;;6.55;100.00;101930.75;5071472;28;20021;-74
2023/03/05 10:28:44;;;;;;;2.95;1.00;;;;;;;7.08;100.00;101921.53;5071410;28;20141;-73
2023/03/05 10:31:27;;;;;;;2.23;0.73;;;;;;;8.07;100.00;101913.75;5053694;28;20036;-73
2023/03/05 10:34:07;;;;;;;2.47;0.52;;;;;;;8.50;100.00;101912.88;5071202;28;20028;-77
2023/03/05 10:36:58;;;;;;;3.30;0.68;;;;;;;8.92;100.00;101910.16;5071573;28;20020;-75
2023/03/05 10:39:26;;;;;;;0.95;0.40;;;;;;;9.42;100.00;101905.88;5071672;28;20436;-75
2023/03/05 10:42:33;;;;;;;3.13;0.70;;;;;;;9.34;100.00;101911.72;5071731;28;20100;-74
2023/03/05 10:45:08;;;;;;;2.03;0.43;;;;;;;9.05;100.00;101896.91;5067680;28;20040;-76
2023/03/05 10:47:42;;;;;;;5.35;0.85;;;;;;;8.75;100.00;101898.00;5071455;28;20480;-76
2023/03/05 10:50:19;;;;;;;3.33;0.65;;;;;;;8.28;100.00;101898.31;5071517;28;20058;-73
2023/03/05 10:52:50;;;;;;;2.63;0.65;;;;;;;7.73;100.00;101894.69;5053177;28;20126;-75
2023/03/05 10:55:21;;;;;;;;;;;;;;;7.56;100.00;101887.75;5072160;28;20032;-76
2023/03/05 10:57:46;;;;;;;7.90;1.10;;;;;;;7.69;100.00;101887.03;5071376;28;20064;-75
2023/03/05 11:00:20;;;;;;;1.42;0.60;;;;;;;7.89;100.00;101877.81;5071759;28;20058;-74
2023/03/05 11:02:53;;;;;;;2.72;0.60;;;;;;;8.39;100.00;101876.41;5071074;28;20098;-76
2023/03/05 11:05:37;;;;;;;0.93;0.50;;;;;;;8.78;100.00;101869.44;5052982;28;20024;-75
2023/03/05 11:08:21;;;;;;;2.90;0.75;;;;;;;9.43;100.00;101866.88;5070937;28;20036;-75
2023/03/05 11:10:46;;;;;;;1.85;0.50;;;;;;;9.97;100.00;101861.28;5071171;28;20191;-77
2023/03/05 11:13:43;;;;;;;5.03;0.90;;;;;;;9.48;100.00;101864.72;5071081;28;20405;-76
2023/03/05 11:16:17;;;;;;;0.95;0.40;;;;;;;8.93;100.00;101862.28;5070244;28;20036;-74
2023/03/05 11:18:45;;;;;;;2.22;0.80;;;;;;;8.55;100.00;101849.72;5070922;28;20083;-75
2023/03/05 11:21:26;;;;;;;1.75;0.65;;;;;;;8.23;100.00;101847.38;5053133;28;20036;-74
2023/03/05 11:24:14;;;;;;;1.17;0.52;;;;;;;8.06;100.00;101843.16;5071065;28;20074;-74
2023/03/05 11:26:51;;;;;;;3.60;0.60;;;;;;;7.64;100.00;101844.06;5070759;28;20048;-75
2023/03/05 11:29:28;;;;;;;1.35;0.40;;;;;;;7.35;100.00;101842.25;5071307;28;20123;-74